Time;durP1;ratioP1;P1;durP2;ratioP2;P2;SDS_P1;SDS_P2;PMS_P1;PMS_P2;Temp;Humidity;BMP_temperature;BMP_pressure;BME280_temperature;BME280_humidity;BME280_pressure;Samples;Min_cycle;Max_cycle;Signal;HPM_P1;HPM_P2
2022/05/10 00:00:19;;;;;;;6.00;2.50;;;19.20;87.20;;;;;;5034918;28;20178;-70
2022/05/10 00:02:53;;;;;;;3.00;2.45;;;19.20;88.10;;;;;;5075575;28;20186;-71
2022/05/10 00:05:36;;;;;;;2.85;2.28;;;19.20;88.60;;;;;;5048003;28;20284;-70
2022/05/10 00:08:07;;;;;;;2.42;2.22;;;19.20;88.70;;;;;;5059358;28;20205;-71
2022/05/10 00:10:36;;;;;;;2.58;2.38;;;19.10;88.50;;;;;;5043094;28;20174;-70
2022/05/10 00:13:01;;;;;;;3.15;2.40;;;19.10;89.10;;;;;;5053011;28;20218;-70
2022/05/10 00:15:30;;;;;;;2.60;2.40;;;19.10;89.00;;;;;;5052763;28;20208;-69
2022/05/10 00:17:55;;;;;;;2.90;2.38;;;19.10;89.60;;;;;;5051836;28;20272;-70
2022/05/10 00:20:23;;;;;;;3.20;2.60;;;19.00;89.20;;;;;;5037040;28;20228;-70
2022/05/10 00:22:51;;;;;;;2.95;2.28;;;19.00;89.80;;;;;;5077691;28;20185;-70
2022/05/10 00:25:22;;;;;;;2.53;2.33;;;18.90;89.90;;;;;;5050994;28;20200;-68
2022/05/10 00:27:50;;;;;;;3.22;2.20;;;18.90;90.20;;;;;;5047435;28;20288;-69
2022/05/10 00:30:16;;;;;;;4.68;2.42;;;18.80;90.20;;;;;;5056109;28;20170;-69
2022/05/10 00:32:43;;;;;;;2.83;2.42;;;18.80;90.40;;;;;;5053420;28;20374;-70
2022/05/10 00:35:22;;;;;;;2.88;2.58;;;18.70;90.50;;;;;;5059080;28;20197;-69
2022/05/10 00:37:53;;;;;;;2.47;2.25;;;18.70;91.10;;;;;;5059461;28;20191;-69
2022/05/10 00:40:21;;;;;;;5.13;2.70;;;18.70;91.00;;;;;;5052526;28;20261;-69
2022/05/10 00:43:11;;;;;;;2.88;2.38;;;18.60;91.00;;;;;;5042787;28;20220;-70
2022/05/10 00:45:52;;;;;;;4.38;2.50;;;18.60;91.60;;;;;;5067124;28;20189;-69
2022/05/10 00:48:44;;;;;;;3.70;2.40;;;18.60;91.60;;;;;;5041611;28;20316;-70
2022/05/10 00:51:40;;;;;;;2.60;2.08;;;18.50;91.70;;;;;;5057929;28;20194;-68
2022/05/10 00:54:22;;;;;;;5.72;2.40;;;18.50;92.00;;;;;;5050466;28;20206;-70
2022/05/10 00:56:54;;;;;;;2.83;2.25;;;18.40;91.90;;;;;;5047418;28;20445;-70
2022/05/10 00:59:34;;;;;;;2.70;2.28;;;18.40;91.80;;;;;;5044592;28;20212;-70
2022/05/10 01:02:09;;;;;;;2.35;2.13;;;18.40;92.30;;;;;;5050698;28;20226;-70
2022/05/10 01:04:41;;;;;;;3.25;2.65;;;18.30;92.20;;;;;;5078375;28;20197;-69
2022/05/10 01:07:42;;;;;;;3.22;2.60;;;18.30;91.90;;;;;;5071057;28;20170;-70
2022/05/10 01:10:24;;;;;;;3.30;2.50;;;18.30;92.80;;;;;;5032741;28;20181;-69
2022/05/10 01:12:59;;;;;;;2.92;2.10;;;18.20;92.40;;;;;;5046383;28;20186;-69
2022/05/10 01:15:28;;;;;;;2.70;2.30;;;18.30;92.50;;;;;;5074593;28;20197;-70
2022/05/10 01:17:58;;;;;;;2.65;2.45;;;18.30;92.30;;;;;;5047544;28;20231;-70
2022/05/10 01:20:39;;;;;;;3.05;2.60;;;18.20;92.50;;;;;;5066383;28;20188;-69
2022/05/10 01:23:27;;;;;;;3.03;2.20;;;18.20;93.00;;;;;;5055789;28;20188;-70
2022/05/10 01:26:04;;;;;;;2.40;2.20;;;18.20;93.20;;;;;;5061619;28;20212;-70
2022/05/10 01:28:36;;;;;;;2.67;2.40;;;18.20;92.70;;;;;;5054683;28;20204;-69
2022/05/10 01:31:08;;;;;;;5.07;2.47;;;18.20;92.90;;;;;;5052022;28;20170;-70
2022/05/10 01:33:41;;;;;;;2.95;2.25;;;18.20;93.00;;;;;;5037735;28;20170;-70
2022/05/10 01:36:45;;;;;;;3.00;2.65;;;18.20;93.00;;;;;;5038953;28;20202;-69
2022/05/10 01:39:31;;;;;;;3.17;2.30;;;18.20;93.30;;;;;;5044194;28;20177;-70
2022/05/10 01:42:11;;;;;;;3.45;2.38;;;18.20;93.10;;;;;;5039381;28;20503;-70
2022/05/10 01:45:01;;;;;;;2.33;2.10;;;18.20;93.30;;;;;;5047704;28;20205;-69
2022/05/10 01:47:34;;;;;;;2.47;2.10;;;18.20;93.40;;;;;;5052027;28;20177;-69
2022/05/10 01:50:23;;;;;;;2.92;2.42;;;18.20;93.20;;;;;;5046636;28;20185;-70
2022/05/10 01:53:10;;;;;;;3.40;2.50;;;18.20;93.40;;;;;;5056938;28;20180;-69
2022/05/10 01:55:45;;;;;;;3.58;2.55;;;18.20;93.50;;;;;;5070605;28;20255;-70
2022/05/10 01:58:13;;;;;;;2.88;2.40;;;18.20;93.30;;;;;;5099626;28;20188;-69
2022/05/10 02:00:43;;;;;;;2.60;2.22;;;18.20;93.10;;;;;;5054663;28;20177;-70
2022/05/10 02:03:13;;;;;;;2.80;2.53;;;18.20;93.20;;;;;;5054494;28;20177;-70
2022/05/10 02:05:53;;;;;;;3.00;2.60;;;18.20;93.50;;;;;;5045604;28;20213;-69
2022/05/10 02:08:42;;;;;;;2.60;2.40;;;18.20;93.60;;;;;;5049004;28;20190;-69
2022/05/10 02:11:12;;;;;;;2.35;2.13;;;18.10;93.60;;;;;;5065216;28;20165;-69
2022/05/10 02:14:09;;;;;;;2.75;2.40;;;18.10;93.50;;;;;;5052804;28;20173;-69
2022/05/10 02:16:40;;;;;;;2.88;2.67;;;18.10;93.90;;;;;;5064199;28;20210;-69
2022/05/10 02:19:20;;;;;;;3.42;2.55;;;18.10;93.50;;;;;;5052849;28;20257;-70
2022/05/10 02:21:55;;;;;;;3.28;2.47;;;18.10;93.90;;;;;;5041806;28;20197;-68
2022/05/10 02:24:39;;;;;;;2.88;2.33;;;18.10;94.00;;;;;;5050879;28;20295;-70
2022/05/10 02:27:11;;;;;;;3.70;2.50;;;18.00;93.70;;;;;;5070491;28;20180;-68
2022/05/10 02:29:54;;;;;;;2.60;2.40;;;18.00;94.00;;;;;;5054428;28;20196;-70
2022/05/10 02:35:31;;;;;;;3.70;2.75;;;17.90;94.00;;;;;;5049590;28;20251;-69
2022/05/10 02:37:57;;;;;;;4.75;2.30;;;17.90;94.20;;;;;;5045058;28;20287;-69
2022/05/10 02:40:23;;;;;;;2.72;2.47;;;17.90;94.20;;;;;;5044655;28;20276;-70
2022/05/10 02:42:49;;;;;;;2.92;2.10;;;17.90;94.30;;;;;;5051974;28;20178;-69
2022/05/10 02:45:19;;;;;;;3.35;2.45;;;17.90;94.40;;;;;;5051550;28;20202;-69
2022/05/10 02:47:49;;;;;;;2.50;2.30;;;17.90;94.50;;;;;;5035289;28;20256;-69
2022/05/10 02:50:20;;;;;;;2.60;2.40;;;17.90;94.80;;;;;;5051518;28;20185;-70
2022/05/10 02:52:48;;;;;;;3.08;2.50;;;17.80;94.80;;;;;;5048534;28;20177;-70
2022/05/10 02:55:38;;;;;;;3.22;2.53;;;17.80;94.60;;;;;;5059153;28;20201;-70
2022/05/10 02:58:45;;;;;;;2.47;2.28;;;17.80;95.10;;;;;;5051289;28;20181;-70
2022/05/10 03:01:36;;;;;;;2.50;2.30;;;17.80;95.10;;;;;;5040148;28;20202;-69
2022/05/10 03:04:08;;;;;;;2.80;2.47;;;17.80;95.10;;;;;;5056582;28;20196;-69
2022/05/10 03:06:36;;;;;;;2.85;2.33;;;17.80;94.90;;;;;;5044188;28;20170;-70
2022/05/10 03:09:08;;;;;;;2.67;2.40;;;17.80;94.90;;;;;;5048549;28;20224;-69
2022/05/10 03:11:35;;;;;;;2.70;2.50;;;17.80;95.20;;;;;;5053920;28;20181;-70
2022/05/10 03:14:04;;;;;;;4.05;2.70;;;17.80;95.10;;;;;;5043214;28;20178;-69
2022/05/10 03:16:32;;;;;;;3.10;2.67;;;17.80;95.10;;;;;;5040369;28;20194;-70
2022/05/10 03:19:00;;;;;;;3.55;2.90;;;17.80;95.20;;;;;;5047622;28;20198;-70
2022/05/10 03:21:26;;;;;;;3.20;2.60;;;17.70;95.20;;;;;;5053276;28;20208;-70
2022/05/10 03:23:52;;;;;;;2.78;2.42;;;17.70;95.30;;;;;;5055035;28;20324;-70
2022/05/10 03:26:23;;;;;;;3.25;2.80;;;17.70;95.40;;;;;;5044606;28;20173;-69
2022/05/10 03:28:48;;;;;;;3.42;2.90;;;17.60;95.70;;;;;;5034419;28;20204;-69
2022/05/10 03:31:16;;;;;;;3.20;2.90;;;17.60;95.60;;;;;;5051759;28;20174;-69
2022/05/10 03:33:42;;;;;;;3.55;3.25;;;17.60;95.70;;;;;;5044222;28;20181;-70
2022/05/10 03:36:10;;;;;;;5.80;5.00;;;17.50;95.80;;;;;;5051860;28;20264;-70
2022/05/10 03:38:38;;;;;;;6.13;4.88;;;17.50;95.90;;;;;;5050044;28;20178;-69
2022/05/10 03:41:04;;;;;;;4.50;4.07;;;17.50;96.30;;;;;;5048846;28;20209;-70
2022/05/10 03:43:29;;;;;;;5.97;4.85;;;17.50;96.20;;;;;;5059543;28;20208;-70
2022/05/10 03:45:55;;;;;;;5.05;4.13;;;17.50;96.30;;;;;;5052938;28;20196;-70
2022/05/10 03:48:21;;;;;;;5.05;4.07;;;17.40;96.40;;;;;;5053944;28;20188;-69
2022/05/10 03:50:47;;;;;;;4.32;3.40;;;17.40;96.60;;;;;;5050131;28;20245;-70
2022/05/10 03:53:15;;;;;;;4.10;3.33;;;17.40;96.70;;;;;;5049573;28;20239;-69
2022/05/10 03:55:40;;;;;;;5.78;5.03;;;17.40;96.80;;;;;;5046951;28;20280;-70
2022/05/10 03:58:09;;;;;;;13.32;11.18;;;17.40;96.90;;;;;;5049744;28;20257;-70
2022/05/10 04:00:34;;;;;;;5.75;5.25;;;17.30;97.20;;;;;;5049624;28;20197;-69
2022/05/10 04:03:00;;;;;;;5.28;4.25;;;17.30;97.10;;;;;;5054006;28;20277;-69
2022/05/10 04:05:26;;;;;;;5.05;3.90;;;17.30;97.30;;;;;;5044340;28;20270;-69
2022/05/10 04:07:55;;;;;;;3.95;3.53;;;17.20;97.40;;;;;;5035611;28;20174;-69
2022/05/10 04:10:22;;;;;;;4.22;3.35;;;17.20;97.60;;;;;;5087719;28;20202;-69
2022/05/10 04:12:48;;;;;;;4.22;3.20;;;17.20;97.80;;;;;;5054403;28;20468;-70
2022/05/10 04:15:16;;;;;;;4.05;3.38;;;17.20;97.90;;;;;;5083939;28;20178;-69
2022/05/10 04:17:46;;;;;;;3.67;3.17;;;17.20;98.20;;;;;;5049090;28;20331;-69
2022/05/10 04:20:20;;;;;;;4.40;3.13;;;17.20;98.50;;;;;;5049622;28;20193;-70
2022/05/10 04:22:45;;;;;;;3.45;3.10;;;17.20;98.60;;;;;;5050240;28;20267;-70
2022/05/10 04:25:14;;;;;;;4.75;3.53;;;17.20;98.50;;;;;;5073265;28;20232;-70
2022/05/10 04:27:42;;;;;;;6.85;3.63;;;17.20;98.80;;;;;;5046301;28;20165;-70
2022/05/10 04:30:11;;;;;;;3.58;3.22;;;17.20;99.20;;;;;;5044202;28;20220;-70
2022/05/10 04:32:38;;;;;;;4.28;3.30;;;17.20;99.40;;;;;;5054683;28;20198;-69
2022/05/10 04:35:06;;;;;;;4.47;3.40;;;17.20;99.20;;;;;;5048612;28;20228;-70
2022/05/10 04:37:32;;;;;;;3.92;3.10;;;17.20;99.40;;;;;;5033344;28;20191;-71
2022/05/10 04:42:45;;;;;;;4.50;3.25;;;17.20;99.90;;;;;;5052371;28;20252;-69
2022/05/10 04:45:12;;;;;;;3.72;3.33;;;17.20;99.90;;;;;;5032720;28;20206;-70
2022/05/10 04:47:41;;;;;;;3.92;3.30;;;17.30;99.90;;;;;;5041884;28;20192;-70
2022/05/10 04:50:07;;;;;;;4.15;3.30;;;17.30;99.90;;;;;;5051641;28;20263;-70
2022/05/10 04:52:33;;;;;;;4.10;3.70;;;17.30;99.90;;;;;;5032954;28;20170;-70
2022/05/10 04:54:59;;;;;;;4.43;3.40;;;17.30;99.90;;;;;;5038496;28;20260;-69
2022/05/10 04:57:24;;;;;;;4.10;3.60;;;17.30;99.90;;;;;;5060889;28;20228;-69
2022/05/10 04:59:50;;;;;;;3.67;3.38;;;17.30;99.90;;;;;;5055297;28;20180;-70
2022/05/10 05:02:15;;;;;;;3.63;3.13;;;17.40;99.90;;;;;;5038409;28;20189;-70
2022/05/10 05:04:44;;;;;;;5.68;3.20;;;17.40;99.90;;;;;;5052307;28;20204;-70
2022/05/10 05:07:11;;;;;;;4.25;3.70;;;17.40;99.90;;;;;;5050807;28;20212;-70
2022/05/10 05:09:39;;;;;;;4.30;3.60;;;17.40;99.90;;;;;;5032655;28;20166;-70
2022/05/10 05:12:05;;;;;;;5.32;3.65;;;17.50;99.90;;;;;;5041891;28;20177;-69
2022/05/10 05:14:31;;;;;;;5.45;3.72;;;17.50;99.90;;;;;;5052413;28;20332;-70
2022/05/10 05:16:59;;;;;;;4.57;3.88;;;17.50;99.90;;;;;;5045475;28;20206;-70
2022/05/10 05:19:24;;;;;;;5.47;3.35;;;17.50;99.90;;;;;;5033969;28;20180;-69
2022/05/10 05:21:52;;;;;;;3.95;3.50;;;17.50;99.90;;;;;;5032460;28;20178;-70
2022/05/10 05:24:18;;;;;;;4.60;3.38;;;17.50;99.90;;;;;;5050876;28;20228;-70
2022/05/10 05:26:45;;;;;;;3.55;3.20;;;17.60;99.90;;;;;;5051959;28;20177;-70
2022/05/10 05:29:10;;;;;;;5.72;3.53;;;17.60;99.90;;;;;;5061732;28;20170;-69
2022/05/10 05:31:39;;;;;;;3.63;3.33;;;17.70;99.90;;;;;;5050044;28;20178;-70
2022/05/10 05:34:05;;;;;;;3.70;3.28;;;17.70;99.90;;;;;;5046498;28;20208;-69
2022/05/10 05:36:30;;;;;;;3.72;3.25;;;17.70;99.90;;;;;;5035963;28;20175;-70
2022/05/10 05:38:58;;;;;;;4.15;3.00;;;17.80;99.90;;;;;;5072699;28;20257;-69
2022/05/10 05:41:24;;;;;;;3.85;3.35;;;17.80;99.90;;;;;;5058124;28;20215;-71
2022/05/10 05:43:49;;;;;;;4.18;3.17;;;17.80;99.90;;;;;;5056203;28;20201;-70
2022/05/10 05:46:15;;;;;;;3.50;3.20;;;17.80;99.90;;;;;;5052485;28;20216;-71
2022/05/10 05:48:41;;;;;;;3.40;3.10;;;17.90;99.90;;;;;;5049275;28;20178;-70
2022/05/10 05:51:06;;;;;;;6.30;3.67;;;17.90;99.90;;;;;;5081017;28;20187;-71
2022/05/10 05:53:34;;;;;;;4.35;3.40;;;17.90;99.90;;;;;;5061858;28;20174;-71
2022/05/10 05:56:04;;;;;;;3.47;3.15;;;18.00;99.90;;;;;;5055490;28;20232;-72
2022/05/10 05:58:30;;;;;;;5.00;3.22;;;18.00;99.90;;;;;;5059596;28;20535;-71
2022/05/10 06:00:58;;;;;;;4.65;3.25;;;18.10;99.90;;;;;;5066984;28;20200;-70
2022/05/10 06:03:23;;;;;;;3.85;3.40;;;18.10;99.90;;;;;;5056093;28;20201;-72
2022/05/10 06:05:49;;;;;;;5.15;3.72;;;18.20;99.90;;;;;;5055157;28;20212;-70
2022/05/10 06:08:19;;;;;;;3.55;3.15;;;18.20;99.90;;;;;;5065195;28;20177;-70
2022/05/10 06:10:49;;;;;;;4.70;3.72;;;18.30;99.90;;;;;;5044121;28;20174;-70
2022/05/10 06:13:18;;;;;;;3.70;3.17;;;18.40;99.90;;;;;;5039095;28;20170;-70
2022/05/10 06:15:44;;;;;;;3.50;3.20;;;18.50;99.90;;;;;;5063446;28;20215;-71
2022/05/10 06:18:12;;;;;;;3.50;3.20;;;18.60;99.90;;;;;;5041263;28;20235;-69
2022/05/10 06:20:38;;;;;;;4.70;3.30;;;18.70;99.90;;;;;;5068493;28;20182;-70
2022/05/10 06:23:06;;;;;;;4.68;3.00;;;18.90;99.90;;;;;;5068521;28;20202;-70
2022/05/10 06:25:36;;;;;;;3.75;3.25;;;19.00;99.90;;;;;;5065976;28;20209;-71
2022/05/10 06:28:05;;;;;;;5.07;3.28;;;19.10;99.90;;;;;;5053837;28;20177;-69
2022/05/10 06:30:32;;;;;;;6.30;3.20;;;19.30;99.90;;;;;;5051049;28;20170;-70
2022/05/10 06:32:59;;;;;;;3.38;2.95;;;19.40;99.90;;;;;;5049266;28;20320;-69
2022/05/10 06:35:30;;;;;;;4.20;3.13;;;19.50;99.90;;;;;;5047572;28;20300;-69
2022/05/10 06:40:41;;;;;;;3.42;3.03;;;19.70;99.90;;;;;;5051846;28;20261;-69
2022/05/10 06:43:06;;;;;;;4.18;3.30;;;19.80;99.90;;;;;;5054176;28;20201;-69
2022/05/10 06:45:32;;;;;;;3.88;3.47;;;19.90;99.90;;;;;;5052753;28;20227;-69
2022/05/10 06:47:58;;;;;;;4.53;3.15;;;20.00;99.90;;;;;;5054477;28;20173;-70
2022/05/10 06:50:25;;;;;;;6.38;3.50;;;20.20;99.90;;;;;;5050081;28;20280;-70
2022/05/10 06:52:57;;;;;;;4.38;3.50;;;20.30;99.90;;;;;;5051566;28;20206;-70
2022/05/10 06:55:25;;;;;;;4.22;3.50;;;20.40;99.90;;;;;;5052357;28;20276;-69
2022/05/10 06:57:54;;;;;;;4.55;3.30;;;20.50;99.90;;;;;;5038006;28;20274;-70
2022/05/10 07:00:20;;;;;;;4.18;3.10;;;20.60;99.90;;;;;;5054653;28;20181;-70
2022/05/10 07:02:46;;;;;;;4.68;3.17;;;20.60;99.90;;;;;;5053924;28;20270;-70
2022/05/10 07:05:13;;;;;;;3.60;3.30;;;20.70;99.90;;;;;;5054162;28;20198;-71
2022/05/10 07:07:39;;;;;;;3.83;3.28;;;20.80;99.90;;;;;;5041326;28;20178;-70
2022/05/10 07:10:10;;;;;;;3.85;3.42;;;20.90;99.90;;;;;;5034530;28;20220;-70
2022/05/10 07:12:40;;;;;;;6.25;3.28;;;21.00;99.90;;;;;;5044448;28;20165;-70
2022/05/10 07:15:08;;;;;;;4.75;3.20;;;21.10;99.90;;;;;;5054412;28;20173;-71
2022/05/10 07:17:33;;;;;;;3.10;2.80;;;21.20;99.90;;;;;;5053971;28;20356;-70
2022/05/10 07:19:59;;;;;;;4.57;3.25;;;21.40;99.90;;;;;;5054395;28;20209;-70
2022/05/10 07:22:25;;;;;;;4.80;3.38;;;21.40;99.90;;;;;;5054188;28;20200;-70
2022/05/10 07:24:51;;;;;;;4.43;3.30;;;21.50;99.90;;;;;;5053801;28;20280;-69
2022/05/10 07:27:19;;;;;;;4.28;3.15;;;21.60;99.90;;;;;;5072259;28;20178;-70
2022/05/10 07:29:45;;;;;;;4.00;2.90;;;21.80;99.90;;;;;;5067129;28;20170;-70
2022/05/10 07:32:12;;;;;;;5.90;3.05;;;21.80;99.90;;;;;;5053857;28;20237;-70
2022/05/10 07:34:38;;;;;;;3.08;2.88;;;21.90;99.90;;;;;;5053514;28;20173;-70
2022/05/10 07:37:06;;;;;;;3.20;2.90;;;22.00;99.90;;;;;;5053741;28;20288;-69
2022/05/10 07:39:35;;;;;;;4.50;3.38;;;22.10;99.90;;;;;;5050302;28;20193;-70
2022/05/10 07:42:03;;;;;;;4.03;3.00;;;22.20;99.90;;;;;;5050442;28;20205;-75
2022/05/10 07:44:29;;;;;;;4.38;3.22;;;22.20;99.90;;;;;;5050326;28;20197;-76
2022/05/10 07:46:57;;;;;;;3.40;2.97;;;22.30;99.90;;;;;;5059532;28;20241;-76
2022/05/10 07:49:25;;;;;;;3.17;2.88;;;22.30;99.90;;;;;;5043114;28;20185;-75
2022/05/10 07:51:51;;;;;;;3.67;2.90;;;22.40;99.90;;;;;;5053562;28;20186;-76
2022/05/10 07:54:17;;;;;;;5.60;3.10;;;22.50;99.90;;;;;;5040349;28;20273;-76
2022/05/10 07:56:43;;;;;;;4.57;3.40;;;22.60;99.90;;;;;;5053260;28;20208;-76
2022/05/10 07:59:12;;;;;;;4.30;2.95;;;22.70;99.90;;;;;;5053194;28;20173;-78
2022/05/10 08:01:38;;;;;;;2.90;2.63;;;22.80;99.90;;;;;;5052556;28;20215;-76
2022/05/10 08:04:04;;;;;;;4.18;2.75;;;22.90;99.90;;;;;;5033561;28;20186;-76
2022/05/10 08:06:32;;;;;;;4.38;2.60;;;23.00;99.90;;;;;;5033526;28;20214;-75
2022/05/10 08:08:58;;;;;;;3.80;2.60;;;23.00;99.90;;;;;;5033384;28;20166;-76
2022/05/10 08:11:23;;;;;;;3.30;3.00;;;23.10;99.90;;;;;;5033102;28;20201;-76
2022/05/10 08:13:49;;;;;;;4.68;2.85;;;23.10;99.90;;;;;;5033004;28;20216;-74
2022/05/10 08:16:15;;;;;;;3.38;2.60;;;23.30;99.90;;;;;;5052651;28;20181;-74
2022/05/10 08:18:45;;;;;;;3.55;2.90;;;23.30;99.90;;;;;;5042665;28;20259;-74
2022/05/10 08:21:15;;;;;;;3.35;2.80;;;23.40;99.50;;;;;;5033012;28;20174;-75
2022/05/10 08:23:42;;;;;;;3.60;3.05;;;23.60;99.10;;;;;;5043828;28;20445;-72
2022/05/10 08:26:08;;;;;;;3.08;2.75;;;23.70;98.60;;;;;;5038317;28;20201;-76
2022/05/10 08:28:35;;;;;;;4.22;2.63;;;23.80;98.30;;;;;;5084624;28;20455;-75
2022/05/10 08:31:04;;;;;;;4.00;3.10;;;23.90;97.90;;;;;;5048445;28;20182;-76
2022/05/10 08:33:33;;;;;;;3.17;2.70;;;24.10;97.40;;;;;;5035300;28;20181;-75
2022/05/10 08:36:00;;;;;;;3.60;2.78;;;24.20;97.20;;;;;;5069363;28;20177;-74
2022/05/10 08:38:28;;;;;;;2.83;2.63;;;24.30;96.30;;;;;;5052846;28;20201;-77
2022/05/10 08:41:11;;;;;;;2.90;2.55;;;24.40;96.00;;;;;;5052497;28;20407;-76
2022/05/10 08:43:37;;;;;;;3.00;2.70;;;24.60;95.50;;;;;;5042512;28;20174;-77
2022/05/10 08:46:03;;;;;;;3.20;2.90;;;24.70;95.40;;;;;;5049109;28;20225;-76
2022/05/10 08:48:34;;;;;;;3.20;2.90;;;24.70;95.10;;;;;;5032469;28;20165;-75
2022/05/10 08:51:01;;;;;;;2.97;2.70;;;24.80;94.30;;;;;;5043980;28;20189;-77
2022/05/10 08:53:27;;;;;;;3.40;2.63;;;24.90;94.60;;;;;;5034895;28;20174;-77
2022/05/10 08:56:07;;;;;;;3.17;2.45;;;25.00;94.40;;;;;;5034972;28;20182;-76
2022/05/10 08:58:42;;;;;;;3.30;2.72;;;25.00;94.00;;;;;;5049266;28;20181;-73
2022/05/10 09:01:21;;;;;;;3.67;2.60;;;25.10;94.60;;;;;;5049591;28;20169;-76
2022/05/10 09:04:13;;;;;;;5.55;2.70;;;25.20;93.60;;;;;;5032730;28;20193;-77
2022/05/10 09:07:00;;;;;;;3.20;2.90;;;25.30;93.20;;;;;;5046456;28;20244;-77
2022/05/10 09:09:33;;;;;;;3.00;2.72;;;25.40;92.40;;;;;;5056523;28;20184;-77
2022/05/10 09:12:10;;;;;;;2.55;2.35;;;25.50;91.90;;;;;;5073160;28;20171;-76
2022/05/10 09:14:51;;;;;;;2.65;2.40;;;25.50;91.70;;;;;;5053308;28;20177;-76
2022/05/10 09:17:19;;;;;;;4.03;2.80;;;25.50;91.20;;;;;;5052678;28;20245;-76
2022/05/10 09:19:44;;;;;;;3.22;2.45;;;25.50;91.20;;;;;;5035809;28;20206;-76
2022/05/10 09:22:55;;;;;;;2.85;2.25;;;25.60;90.90;;;;;;5036556;28;20178;-74
2022/05/10 09:25:34;;;;;;;4.53;2.70;;;25.70;87.90;;;;;;5015340;28;20300;-76
2022/05/10 09:28:11;;;;;;;2.47;2.28;;;25.80;90.00;;;;;;5043547;28;20172;-75
2022/05/10 09:30:37;;;;;;;3.13;2.50;;;25.80;89.40;;;;;;5072409;28;20158;-75
2022/05/10 09:36:12;;;;;;;2.33;2.13;;;26.00;85.20;;;;;;5040780;28;20188;-76
2022/05/10 09:38:50;;;;;;;2.58;2.20;;;26.00;86.70;;;;;;5035798;28;20186;-77
2022/05/10 09:41:32;;;;;;;2.58;2.35;;;26.10;85.30;;;;;;5069745;28;20326;-75
2022/05/10 09:44:18;;;;;;;3.40;2.17;;;26.20;83.50;;;;;;5071357;28;20291;-75
2022/05/10 09:46:44;;;;;;;2.75;2.10;;;26.20;81.20;;;;;;5055759;28;20205;-72
2022/05/10 09:49:37;;;;;;;2.67;2.25;;;26.30;82.50;;;;;;5070789;28;20183;-76
2022/05/10 09:52:05;;;;;;;3.47;2.28;;;26.40;76.40;;;;;;5029501;28;20198;-75
2022/05/10 09:54:38;;;;;;;3.05;2.45;;;26.40;78.40;;;;;;5045271;28;20165;-75
2022/05/10 09:57:10;;;;;;;2.95;2.10;;;26.40;77.10;;;;;;5055630;28;20173;-74
2022/05/10 09:59:46;;;;;;;3.22;2.42;;;26.40;77.10;;;;;;5055636;28;20230;-74
2022/05/10 10:02:25;;;;;;;2.58;2.13;;;26.40;75.50;;;;;;5055604;28;20197;-73
2022/05/10 10:04:53;;;;;;;2.58;2.30;;;26.40;75.50;;;;;;5052073;28;20217;-77
2022/05/10 10:07:52;;;;;;;2.80;2.40;;;26.40;74.60;;;;;;5043463;28;20178;-74
2022/05/10 10:10:28;;;;;;;3.80;2.50;;;26.40;72.50;;;;;;5066591;28;20204;-75
2022/05/10 10:12:54;;;;;;;2.33;2.10;;;26.50;71.90;;;;;;5055101;28;20257;-74
2022/05/10 10:15:40;;;;;;;3.92;2.90;;;26.50;72.70;;;;;;5055314;28;20188;-75
2022/05/10 10:18:13;;;;;;;2.92;2.20;;;26.60;72.20;;;;;;5056672;28;20247;-75
2022/05/10 10:20:57;;;;;;;3.28;1.90;;;26.60;72.00;;;;;;5035699;28;20272;-75
2022/05/10 10:23:33;;;;;;;2.55;2.25;;;26.80;71.50;;;;;;5052342;28;20194;-74
2022/05/10 10:26:03;;;;;;;2.40;2.10;;;27.10;72.10;;;;;;5044856;28;20212;-74
2022/05/10 10:28:35;;;;;;;2.55;2.33;;;27.40;70.90;;;;;;5055741;28;20166;-75
2022/05/10 10:31:13;;;;;;;2.92;2.00;;;27.70;70.70;;;;;;5055434;28;20196;-75
2022/05/10 10:33:44;;;;;;;2.50;2.30;;;27.90;71.00;;;;;;5072327;28;20173;-76
2022/05/10 10:36:13;;;;;;;2.13;1.88;;;28.00;70.80;;;;;;5045610;28;20193;-76
2022/05/10 10:38:55;;;;;;;2.55;2.10;;;28.10;70.60;;;;;;5047484;28;20231;-76
2022/05/10 10:41:42;;;;;;;2.40;2.20;;;28.20;68.90;;;;;;5049264;28;20201;-75
2022/05/10 10:44:31;;;;;;;3.45;2.40;;;28.30;67.30;;;;;;5048639;28;20213;-73
2022/05/10 10:47:22;;;;;;;3.47;2.50;;;28.40;66.10;;;;;;5063186;28;20176;-75
2022/05/10 10:50:00;;;;;;;1.80;1.70;;;28.50;64.30;;;;;;5045608;28;20269;-73
2022/05/10 10:52:31;;;;;;;2.47;1.67;;;28.50;63.30;;;;;;5048373;28;20166;-75
2022/05/10 10:54:57;;;;;;;2.65;2.00;;;28.50;61.70;;;;;;5054693;28;20193;-74
2022/05/10 10:57:31;;;;;;;2.97;1.85;;;28.50;61.00;;;;;;5054384;28;20243;-75
2022/05/10 11:00:13;;;;;;;3.35;1.95;;;28.40;57.80;;;;;;5054639;28;20204;-75
2022/05/10 11:02:48;;;;;;;3.08;2.20;;;28.40;58.90;;;;;;5050338;28;20206;-76
2022/05/10 11:05:20;;;;;;;2.45;2.13;;;28.40;59.50;;;;;;5040317;28;20201;-75
2022/05/10 11:08:09;;;;;;;2.85;2.08;;;28.40;59.00;;;;;;5051142;28;20429;-76
2022/05/10 11:11:06;;;;;;;2.20;2.00;;;28.30;58.60;;;;;;5052549;28;20297;-76
2022/05/10 11:13:54;;;;;;;2.92;2.10;;;28.30;57.90;;;;;;5054182;28;20189;-72
2022/05/10 11:16:22;;;;;;;2.33;2.08;;;28.30;59.00;;;;;;5054087;28;20242;-75
2022/05/10 11:19:16;;;;;;;4.68;2.13;;;28.30;59.10;;;;;;5053062;28;20235;-75
2022/05/10 11:21:59;;;;;;;4.00;2.47;;;28.20;58.60;;;;;;5050018;28;20213;-76
2022/05/10 11:24:59;;;;;;;3.63;2.20;;;28.30;58.40;;;;;;5033858;28;20233;-75
2022/05/10 11:27:47;;;;;;;2.67;2.00;;;28.30;58.20;;;;;;5044934;28;20174;-75
2022/05/10 11:30:22;;;;;;;3.53;1.63;;;28.50;58.50;;;;;;5049657;28;20174;-74
2022/05/10 11:33:34;;;;;;;3.17;2.45;;;28.70;59.60;;;;;;5048245;28;20224;-73
2022/05/10 11:36:15;;;;;;;3.28;2.25;;;28.90;57.90;;;;;;5053308;28;20184;-74
2022/05/10 11:39:07;;;;;;;2.42;2.10;;;29.10;57.60;;;;;;5048481;28;20209;-72
2022/05/10 11:41:52;;;;;;;2.60;2.05;;;29.20;56.90;;;;;;5055912;28;20196;-73
2022/05/10 11:44:55;;;;;;;6.68;2.30;;;29.20;55.90;;;;;;5033776;28;20212;-74
2022/05/10 11:47:51;;;;;;;2.13;1.92;;;29.20;54.70;;;;;;5033187;28;20184;-73
2022/05/10 11:50:25;;;;;;;2.65;2.45;;;29.10;55.00;;;;;;5045576;28;20177;-75
2022/05/10 11:53:19;;;;;;;2.30;2.10;;;29.00;54.40;;;;;;5067216;28;20166;-76
2022/05/10 11:55:55;;;;;;;4.53;2.47;;;28.90;54.00;;;;;;5055153;28;20181;-75
2022/05/10 11:58:23;;;;;;;2.30;2.10;;;28.80;54.10;;;;;;5052898;28;20208;-74
2022/05/10 12:01:11;;;;;;;2.65;2.30;;;28.70;54.40;;;;;;5052953;28;20178;-75
2022/05/10 12:03:40;;;;;;;2.10;1.92;;;28.60;54.20;;;;;;5052885;28;20197;-73
2022/05/10 12:06:24;;;;;;;2.50;2.30;;;28.50;54.30;;;;;;5053078;28;20205;-74
2022/05/10 12:08:57;;;;;;;2.50;2.17;;;28.50;54.70;;;;;;5049544;28;20177;-76
2022/05/10 12:11:32;;;;;;;2.53;2.30;;;28.40;54.30;;;;;;5033661;28;20202;-76
2022/05/10 12:22:49;;;;;;;3.58;2.40;;;28.30;54.80;;;;;;5033727;28;20213;-76
2022/05/10 12:25:54;;;;;;;2.35;2.10;;;28.20;54.80;;;;;;5077023;28;20266;-75
2022/05/10 12:28:41;;;;;;;2.08;1.88;;;28.20;54.10;;;;;;5063333;28;20181;-76
2022/05/10 12:31:29;;;;;;;1.88;1.70;;;28.10;55.00;;;;;;5041423;28;20263;-76
2022/05/10 12:34:03;;;;;;;2.38;2.13;;;28.20;55.00;;;;;;5049882;28;20173;-73
2022/05/10 12:36:38;;;;;;;3.05;2.38;;;28.20;54.90;;;;;;5067869;28;20173;-76
2022/05/10 12:39:23;;;;;;;2.60;2.00;;;28.20;54.80;;;;;;5036247;28;20177;-75
2022/05/10 12:41:56;;;;;;;3.33;2.10;;;28.20;55.00;;;;;;5043753;28;20194;-76
2022/05/10 12:44:46;;;;;;;2.10;1.90;;;28.20;55.50;;;;;;5037270;28;20174;-76
2022/05/10 12:47:35;;;;;;;2.38;2.15;;;28.30;55.40;;;;;;5037622;28;20163;-76
2022/05/10 12:50:21;;;;;;;3.53;2.30;;;28.30;56.10;;;;;;5069913;28;20172;-75
2022/05/10 12:52:48;;;;;;;3.28;2.35;;;28.40;55.30;;;;;;5056938;28;20168;-75
2022/05/10 12:55:22;;;;;;;2.10;1.90;;;28.40;55.20;;;;;;5056589;28;20243;-76
2022/05/10 12:58:14;;;;;;;2.67;2.20;;;28.40;54.50;;;;;;5056696;28;20166;-76
2022/05/10 13:00:48;;;;;;;2.35;1.85;;;28.40;54.90;;;;;;5056816;28;20259;-76
2022/05/10 13:03:19;;;;;;;2.20;2.00;;;28.50;54.90;;;;;;5055817;28;20241;-76
2022/05/10 13:06:17;;;;;;;2.28;2.08;;;28.60;55.20;;;;;;5037508;28;20209;-75
2022/05/10 13:08:57;;;;;;;3.85;2.00;;;28.60;54.60;;;;;;5080232;28;20185;-75
2022/05/10 13:11:27;;;;;;;2.13;1.90;;;28.70;53.90;;;;;;5055464;28;20317;-73
2022/05/10 13:13:58;;;;;;;2.10;1.90;;;28.70;54.10;;;;;;5055626;28;20174;-70
2022/05/10 13:16:28;;;;;;;2.22;1.90;;;28.70;53.70;;;;;;5055344;28;20168;-75
2022/05/10 13:18:54;;;;;;;2.55;2.00;;;28.80;53.00;;;;;;5055471;28;20197;-73
2022/05/10 13:21:28;;;;;;;2.13;1.77;;;28.70;52.70;;;;;;5055207;28;20239;-73
2022/05/10 13:24:00;;;;;;;2.20;1.98;;;28.70;52.50;;;;;;5051478;28;20205;-74
2022/05/10 13:26:25;;;;;;;2.92;1.92;;;28.60;52.60;;;;;;5035482;28;20198;-76
2022/05/10 13:28:59;;;;;;;3.05;2.03;;;28.70;53.00;;;;;;5035190;28;21247;-78
2022/05/10 13:31:33;;;;;;;2.33;1.90;;;28.80;53.70;;;;;;5035306;28;20178;-74
2022/05/10 13:34:19;;;;;;;1.63;1.52;;;29.00;54.10;;;;;;5035333;28;20173;-75
2022/05/10 13:36:54;;;;;;;2.40;1.77;;;29.30;54.10;;;;;;5035331;28;20264;-75
2022/05/10 13:39:30;;;;;;;1.83;1.52;;;29.50;53.30;;;;;;5054005;28;20172;-75